sensor_id;sensor_type;location;lat;lon;timestamp;P1;durP1;ratioP1;P2;durP2;ratioP2
19358;SDS011;9815;52.334;20.890;2023-04-05T00:01:04;23.90;;;10.97;;
19358;SDS011;9815;52.334;20.890;2023-04-05T00:03:34;23.70;;;10.67;;
19358;SDS011;9815;52.334;20.890;2023-04-05T00:06:03;21.97;;;10.00;;
19358;SDS011;9815;52.334;20.890;2023-04-05T00:08:31;22.83;;;11.37;;
19358;SDS011;9815;52.334;20.890;2023-04-05T00:10:59;21.83;;;10.43;;
19358;SDS011;9815;52.334;20.890;2023-04-05T00:13:27;26.17;;;10.63;;
19358;SDS011;9815;52.334;20.890;2023-04-05T00:15:55;23.77;;;9.87;;
19358;SDS011;9815;52.334;20.890;2023-04-05T00:18:26;21.37;;;10.27;;
19358;SDS011;9815;52.334;20.890;2023-04-05T00:21:01;23.47;;;9.83;;
19358;SDS011;9815;52.334;20.890;2023-04-05T00:23:29;21.17;;;10.20;;
19358;SDS011;9815;52.334;20.890;2023-04-05T00:26:02;26.37;;;10.97;;
19358;SDS011;9815;52.334;20.890;2023-04-05T00:28:30;27.47;;;11.63;;
19358;SDS011;9815;52.334;20.890;2023-04-05T00:30:59;26.90;;;12.10;;
19358;SDS011;9815;52.334;20.890;2023-04-05T00:33:27;28.73;;;12.30;;
19358;SDS011;9815;52.334;20.890;2023-04-05T00:35:55;35.80;;;12.67;;
19358;SDS011;9815;52.334;20.890;2023-04-05T00:38:24;26.07;;;12.57;;
19358;SDS011;9815;52.334;20.890;2023-04-05T00:40:52;28.47;;;12.23;;
19358;SDS011;9815;52.334;20.890;2023-04-05T00:43:20;28.23;;;12.63;;
19358;SDS011;9815;52.334;20.890;2023-04-05T00:45:48;26.30;;;10.97;;
19358;SDS011;9815;52.334;20.890;2023-04-05T00:48:16;22.43;;;11.10;;
19358;SDS011;9815;52.334;20.890;2023-04-05T00:50:45;23.80;;;11.63;;
19358;SDS011;9815;52.334;20.890;2023-04-05T00:53:16;27.93;;;11.43;;
19358;SDS011;9815;52.334;20.890;2023-04-05T00:55:47;25.63;;;11.67;;
19358;SDS011;9815;52.334;20.890;2023-04-05T00:58:17;21.97;;;11.07;;
19358;SDS011;9815;52.334;20.890;2023-04-05T01:00:50;21.57;;;10.77;;
19358;SDS011;9815;52.334;20.890;2023-04-05T01:03:28;22.57;;;10.90;;
19358;SDS011;9815;52.334;20.890;2023-04-05T01:06:03;22.67;;;10.40;;
19358;SDS011;9815;52.334;20.890;2023-04-05T01:08:39;26.07;;;11.53;;
19358;SDS011;9815;52.334;20.890;2023-04-05T01:11:16;26.80;;;11.53;;
19358;SDS011;9815;52.334;20.890;2023-04-05T01:13:45;25.27;;;10.77;;
19358;SDS011;9815;52.334;20.890;2023-04-05T01:16:13;24.33;;;12.03;;
19358;SDS011;9815;52.334;20.890;2023-04-05T01:18:42;28.43;;;11.50;;
19358;SDS011;9815;52.334;20.890;2023-04-05T01:21:20;30.13;;;11.87;;
19358;SDS011;9815;52.334;20.890;2023-04-05T01:24:18;27.37;;;12.00;;
19358;SDS011;9815;52.334;20.890;2023-04-05T01:27:01;27.57;;;11.50;;
19358;SDS011;9815;52.334;20.890;2023-04-05T01:29:38;28.47;;;12.50;;
19358;SDS011;9815;52.334;20.890;2023-04-05T01:32:16;26.10;;;12.23;;
19358;SDS011;9815;52.334;20.890;2023-04-05T01:34:50;30.20;;;12.53;;
19358;SDS011;9815;52.334;20.890;2023-04-05T01:37:24;31.37;;;13.03;;
19358;SDS011;9815;52.334;20.890;2023-04-05T01:39:53;32.37;;;12.87;;
19358;SDS011;9815;52.334;20.890;2023-04-05T01:42:22;35.83;;;13.47;;
19358;SDS011;9815;52.334;20.890;2023-04-05T01:44:53;30.13;;;13.27;;
19358;SDS011;9815;52.334;20.890;2023-04-05T01:47:22;32.97;;;14.23;;
19358;SDS011;9815;52.334;20.890;2023-04-05T01:49:51;30.90;;;13.77;;
19358;SDS011;9815;52.334;20.890;2023-04-05T01:52:20;29.20;;;13.83;;
19358;SDS011;9815;52.334;20.890;2023-04-05T01:54:48;35.17;;;14.67;;
19358;SDS011;9815;52.334;20.890;2023-04-05T01:57:16;30.80;;;14.07;;
19358;SDS011;9815;52.334;20.890;2023-04-05T01:59:44;31.10;;;14.17;;
19358;SDS011;9815;52.334;20.890;2023-04-05T02:02:13;29.47;;;13.27;;
19358;SDS011;9815;52.334;20.890;2023-04-05T02:04:41;30.80;;;13.93;;
19358;SDS011;9815;52.334;20.890;2023-04-05T02:07:10;35.23;;;14.17;;
19358;SDS011;9815;52.334;20.890;2023-04-05T02:09:39;28.57;;;13.93;;
19358;SDS011;9815;52.334;20.890;2023-04-05T02:12:07;34.50;;;14.33;;
19358;SDS011;9815;52.334;20.890;2023-04-05T02:14:36;38.90;;;15.53;;
19358;SDS011;9815;52.334;20.890;2023-04-05T02:17:04;35.13;;;15.10;;
19358;SDS011;9815;52.334;20.890;2023-04-05T02:19:33;34.83;;;15.73;;
19358;SDS011;9815;52.334;20.890;2023-04-05T02:22:06;40.53;;;15.57;;
19358;SDS011;9815;52.334;20.890;2023-04-05T02:24:34;42.90;;;17.10;;
19358;SDS011;9815;52.334;20.890;2023-04-05T02:27:03;44.17;;;18.77;;
19358;SDS011;9815;52.334;20.890;2023-04-05T02:29:32;46.97;;;21.43;;
19358;SDS011;9815;52.334;20.890;2023-04-05T02:32:01;86.40;;;33.57;;
19358;SDS011;9815;52.334;20.890;2023-04-05T02:34:29;116.43;;;41.73;;
19358;SDS011;9815;52.334;20.890;2023-04-05T02:37:00;123.23;;;44.40;;
19358;SDS011;9815;52.334;20.890;2023-04-05T02:39:28;121.80;;;44.83;;
19358;SDS011;9815;52.334;20.890;2023-04-05T02:41:56;123.60;;;44.93;;
19358;SDS011;9815;52.334;20.890;2023-04-05T02:44:24;119.30;;;43.30;;
19358;SDS011;9815;52.334;20.890;2023-04-05T02:46:53;117.77;;;40.83;;
19358;SDS011;9815;52.334;20.890;2023-04-05T02:49:26;106.43;;;40.10;;
19358;SDS011;9815;52.334;20.890;2023-04-05T02:51:57;58.83;;;24.00;;
19358;SDS011;9815;52.334;20.890;2023-04-05T02:54:26;61.60;;;23.87;;
19358;SDS011;9815;52.334;20.890;2023-04-05T02:56:58;49.47;;;22.13;;
19358;SDS011;9815;52.334;20.890;2023-04-05T02:59:37;72.83;;;27.97;;
19358;SDS011;9815;52.334;20.890;2023-04-05T03:02:05;62.63;;;24.87;;
19358;SDS011;9815;52.334;20.890;2023-04-05T03:04:33;42.10;;;18.93;;
19358;SDS011;9815;52.334;20.890;2023-04-05T03:07:02;43.80;;;17.37;;
19358;SDS011;9815;52.334;20.890;2023-04-05T03:09:36;38.43;;;15.60;;
19358;SDS011;9815;52.334;20.890;2023-04-05T03:12:07;44.93;;;17.13;;
19358;SDS011;9815;52.334;20.890;2023-04-05T03:14:39;46.27;;;16.63;;
19358;SDS011;9815;52.334;20.890;2023-04-05T03:17:11;39.50;;;16.67;;
19358;SDS011;9815;52.334;20.890;2023-04-05T03:19:43;34.47;;;15.23;;
19358;SDS011;9815;52.334;20.890;2023-04-05T03:22:16;53.50;;;19.73;;
19358;SDS011;9815;52.334;20.890;2023-04-05T03:24:45;111.97;;;38.03;;
19358;SDS011;9815;52.334;20.890;2023-04-05T03:27:16;112.87;;;37.00;;
19358;SDS011;9815;52.334;20.890;2023-04-05T03:30:04;105.03;;;38.03;;
19358;SDS011;9815;52.334;20.890;2023-04-05T03:32:38;88.43;;;34.73;;
19358;SDS011;9815;52.334;20.890;2023-04-05T03:35:14;54.37;;;25.10;;
19358;SDS011;9815;52.334;20.890;2023-04-05T03:37:45;54.63;;;24.93;;
19358;SDS011;9815;52.334;20.890;2023-04-05T03:40:15;56.53;;;24.80;;
19358;SDS011;9815;52.334;20.890;2023-04-05T03:42:43;62.47;;;26.93;;
19358;SDS011;9815;52.334;20.890;2023-04-05T03:45:11;54.53;;;25.63;;
19358;SDS011;9815;52.334;20.890;2023-04-05T03:47:42;53.97;;;23.93;;
19358;SDS011;9815;52.334;20.890;2023-04-05T03:50:11;53.40;;;21.63;;
19358;SDS011;9815;52.334;20.890;2023-04-05T03:52:39;45.83;;;20.40;;
19358;SDS011;9815;52.334;20.890;2023-04-05T03:55:07;48.70;;;20.60;;
19358;SDS011;9815;52.334;20.890;2023-04-05T03:57:37;47.13;;;21.27;;
19358;SDS011;9815;52.334;20.890;2023-04-05T04:00:18;44.37;;;21.37;;
19358;SDS011;9815;52.334;20.890;2023-04-05T04:03:12;45.17;;;21.47;;
19358;SDS011;9815;52.334;20.890;2023-04-05T04:05:44;43.73;;;22.10;;
19358;SDS011;9815;52.334;20.890;2023-04-05T04:08:12;48.17;;;20.73;;
19358;SDS011;9815;52.334;20.890;2023-04-05T04:10:40;40.50;;;20.07;;
19358;SDS011;9815;52.334;20.890;2023-04-05T04:13:23;41.47;;;19.10;;
19358;SDS011;9815;52.334;20.890;2023-04-05T04:16:12;44.40;;;19.77;;
19358;SDS011;9815;52.334;20.890;2023-04-05T04:18:51;54.27;;;22.83;;
19358;SDS011;9815;52.334;20.890;2023-04-05T04:21:32;53.07;;;22.87;;
19358;SDS011;9815;52.334;20.890;2023-04-05T04:24:39;49.07;;;20.07;;
19358;SDS011;9815;52.334;20.890;2023-04-05T04:27:40;46.30;;;18.67;;
19358;SDS011;9815;52.334;20.890;2023-04-05T04:30:16;48.97;;;20.00;;
19358;SDS011;9815;52.334;20.890;2023-04-05T04:33:08;46.30;;;20.70;;
19358;SDS011;9815;52.334;20.890;2023-04-05T04:36:04;52.50;;;23.43;;
19358;SDS011;9815;52.334;20.890;2023-04-05T04:38:57;50.93;;;23.23;;
19358;SDS011;9815;52.334;20.890;2023-04-05T04:41:43;47.00;;;21.10;;
19358;SDS011;9815;52.334;20.890;2023-04-05T04:44:31;45.70;;;23.30;;
19358;SDS011;9815;52.334;20.890;2023-04-05T04:47:13;54.00;;;22.23;;
19358;SDS011;9815;52.334;20.890;2023-04-05T04:50:01;48.93;;;21.97;;
19358;SDS011;9815;52.334;20.890;2023-04-05T04:52:30;50.60;;;21.10;;
19358;SDS011;9815;52.334;20.890;2023-04-05T04:54:59;48.17;;;20.97;;
19358;SDS011;9815;52.334;20.890;2023-04-05T04:57:28;42.57;;;20.37;;
19358;SDS011;9815;52.334;20.890;2023-04-05T04:59:56;52.80;;;21.40;;
19358;SDS011;9815;52.334;20.890;2023-04-05T05:02:26;50.07;;;20.50;;
19358;SDS011;9815;52.334;20.890;2023-04-05T05:04:56;43.00;;;20.63;;
19358;SDS011;9815;52.334;20.890;2023-04-05T05:07:24;45.43;;;20.37;;
19358;SDS011;9815;52.334;20.890;2023-04-05T05:09:52;47.67;;;20.97;;
19358;SDS011;9815;52.334;20.890;2023-04-05T05:12:20;45.57;;;20.53;;
19358;SDS011;9815;52.334;20.890;2023-04-05T05:14:48;54.53;;;21.17;;
19358;SDS011;9815;52.334;20.890;2023-04-05T05:17:19;47.00;;;19.00;;
19358;SDS011;9815;52.334;20.890;2023-04-05T05:19:48;37.37;;;18.17;;
19358;SDS011;9815;52.334;20.890;2023-04-05T05:22:16;46.77;;;19.57;;
19358;SDS011;9815;52.334;20.890;2023-04-05T05:24:44;45.70;;;19.50;;
19358;SDS011;9815;52.334;20.890;2023-04-05T05:27:14;44.33;;;19.23;;
19358;SDS011;9815;52.334;20.890;2023-04-05T05:29:42;58.57;;;23.00;;
19358;SDS011;9815;52.334;20.890;2023-04-05T05:32:10;55.73;;;21.10;;
19358;SDS011;9815;52.334;20.890;2023-04-05T05:34:41;47.23;;;20.10;;
19358;SDS011;9815;52.334;20.890;2023-04-05T05:37:11;58.40;;;24.10;;
19358;SDS011;9815;52.334;20.890;2023-04-05T05:39:39;49.37;;;21.47;;
19358;SDS011;9815;52.334;20.890;2023-04-05T05:42:07;43.07;;;18.53;;
19358;SDS011;9815;52.334;20.890;2023-04-05T05:44:35;40.43;;;18.57;;
19358;SDS011;9815;52.334;20.890;2023-04-05T05:47:03;34.37;;;16.33;;
19358;SDS011;9815;52.334;20.890;2023-04-05T05:49:31;39.10;;;15.70;;
19358;SDS011;9815;52.334;20.890;2023-04-05T05:51:59;34.97;;;15.40;;
19358;SDS011;9815;52.334;20.890;2023-04-05T05:54:29;35.57;;;16.40;;
19358;SDS011;9815;52.334;20.890;2023-04-05T05:56:57;49.10;;;20.67;;
19358;SDS011;9815;52.334;20.890;2023-04-05T05:59:25;47.40;;;19.73;;
19358;SDS011;9815;52.334;20.890;2023-04-05T06:01:53;44.90;;;19.07;;
19358;SDS011;9815;52.334;20.890;2023-04-05T06:04:21;39.10;;;17.87;;
19358;SDS011;9815;52.334;20.890;2023-04-05T06:06:49;38.87;;;17.50;;
19358;SDS011;9815;52.334;20.890;2023-04-05T06:09:17;46.70;;;19.23;;
19358;SDS011;9815;52.334;20.890;2023-04-05T06:11:48;37.80;;;17.27;;
19358;SDS011;9815;52.334;20.890;2023-04-05T06:14:22;38.50;;;16.30;;
19358;SDS011;9815;52.334;20.890;2023-04-05T06:16:51;37.33;;;16.53;;
19358;SDS011;9815;52.334;20.890;2023-04-05T06:19:19;35.43;;;16.57;;
19358;SDS011;9815;52.334;20.890;2023-04-05T06:21:48;39.77;;;17.23;;
19358;SDS011;9815;52.334;20.890;2023-04-05T06:24:16;38.97;;;18.07;;
19358;SDS011;9815;52.334;20.890;2023-04-05T06:26:44;41.80;;;17.73;;
19358;SDS011;9815;52.334;20.890;2023-04-05T06:29:13;38.90;;;17.27;;
19358;SDS011;9815;52.334;20.890;2023-04-05T06:31:41;38.10;;;16.97;;
19358;SDS011;9815;52.334;20.890;2023-04-05T06:34:11;34.83;;;16.73;;
19358;SDS011;9815;52.334;20.890;2023-04-05T06:36:39;40.43;;;19.40;;
19358;SDS011;9815;52.334;20.890;2023-04-05T06:39:08;42.27;;;17.57;;
19358;SDS011;9815;52.334;20.890;2023-04-05T06:41:36;43.23;;;17.90;;
19358;SDS011;9815;52.334;20.890;2023-04-05T06:44:04;48.23;;;19.17;;
19358;SDS011;9815;52.334;20.890;2023-04-05T06:46:33;46.47;;;18.07;;
19358;SDS011;9815;52.334;20.890;2023-04-05T06:49:01;47.47;;;19.53;;
19358;SDS011;9815;52.334;20.890;2023-04-05T06:51:29;47.97;;;18.50;;
19358;SDS011;9815;52.334;20.890;2023-04-05T06:53:57;47.47;;;18.30;;
19358;SDS011;9815;52.334;20.890;2023-04-05T06:56:25;53.07;;;19.40;;
19358;SDS011;9815;52.334;20.890;2023-04-05T06:58:53;46.07;;;18.60;;
19358;SDS011;9815;52.334;20.890;2023-04-05T07:01:24;35.90;;;16.53;;
19358;SDS011;9815;52.334;20.890;2023-04-05T07:03:54;43.97;;;18.03;;
19358;SDS011;9815;52.334;20.890;2023-04-05T07:06:22;43.13;;;17.70;;
19358;SDS011;9815;52.334;20.890;2023-04-05T07:08:50;45.33;;;17.47;;
19358;SDS011;9815;52.334;20.890;2023-04-05T07:11:18;41.87;;;17.07;;
19358;SDS011;9815;52.334;20.890;2023-04-05T07:13:46;35.47;;;16.37;;
19358;SDS011;9815;52.334;20.890;2023-04-05T07:16:14;39.87;;;15.93;;
19358;SDS011;9815;52.334;20.890;2023-04-05T07:18:44;36.77;;;15.80;;
19358;SDS011;9815;52.334;20.890;2023-04-05T07:21:13;38.50;;;18.10;;
19358;SDS011;9815;52.334;20.890;2023-04-05T07:23:42;40.37;;;18.07;;
19358;SDS011;9815;52.334;20.890;2023-04-05T07:26:10;53.27;;;22.97;;
19358;SDS011;9815;52.334;20.890;2023-04-05T07:28:38;53.13;;;23.07;;
19358;SDS011;9815;52.334;20.890;2023-04-05T07:31:06;53.47;;;22.43;;
19358;SDS011;9815;52.334;20.890;2023-04-05T07:33:34;44.07;;;20.20;;
19358;SDS011;9815;52.334;20.890;2023-04-05T07:36:02;55.30;;;22.67;;
19358;SDS011;9815;52.334;20.890;2023-04-05T07:38:32;54.33;;;21.60;;
19358;SDS011;9815;52.334;20.890;2023-04-05T07:41:00;53.30;;;21.60;;
19358;SDS011;9815;52.334;20.890;2023-04-05T07:43:28;51.27;;;19.03;;
19358;SDS011;9815;52.334;20.890;2023-04-05T07:46:00;36.27;;;14.80;;
19358;SDS011;9815;52.334;20.890;2023-04-05T07:48:28;28.77;;;14.03;;
19358;SDS011;9815;52.334;20.890;2023-04-05T07:51:01;37.47;;;14.73;;
19358;SDS011;9815;52.334;20.890;2023-04-05T07:53:30;38.80;;;15.20;;
19358;SDS011;9815;52.334;20.890;2023-04-05T07:56:01;34.77;;;16.33;;
19358;SDS011;9815;52.334;20.890;2023-04-05T07:58:30;41.17;;;16.40;;
19358;SDS011;9815;52.334;20.890;2023-04-05T08:00:58;38.90;;;15.03;;
19358;SDS011;9815;52.334;20.890;2023-04-05T08:03:27;30.20;;;13.83;;
19358;SDS011;9815;52.334;20.890;2023-04-05T08:05:55;28.10;;;13.73;;
19358;SDS011;9815;52.334;20.890;2023-04-05T08:08:24;35.97;;;13.73;;
19358;SDS011;9815;52.334;20.890;2023-04-05T08:10:52;32.00;;;13.67;;
19358;SDS011;9815;52.334;20.890;2023-04-05T08:13:21;31.10;;;11.50;;
19358;SDS011;9815;52.334;20.890;2023-04-05T08:15:49;25.43;;;9.80;;
19358;SDS011;9815;52.334;20.890;2023-04-05T08:18:17;21.30;;;9.80;;
19358;SDS011;9815;52.334;20.890;2023-04-05T08:20:46;18.00;;;9.13;;
19358;SDS011;9815;52.334;20.890;2023-04-05T08:23:17;22.80;;;10.60;;
19358;SDS011;9815;52.334;20.890;2023-04-05T08:25:45;25.53;;;11.67;;
19358;SDS011;9815;52.334;20.890;2023-04-05T08:28:13;27.73;;;11.47;;
19358;SDS011;9815;52.334;20.890;2023-04-05T08:30:43;20.20;;;8.77;;
19358;SDS011;9815;52.334;20.890;2023-04-05T08:33:12;19.17;;;8.83;;
19358;SDS011;9815;52.334;20.890;2023-04-05T08:35:40;41.23;;;15.03;;
19358;SDS011;9815;52.334;20.890;2023-04-05T08:38:09;37.73;;;11.87;;
19358;SDS011;9815;52.334;20.890;2023-04-05T08:40:38;24.27;;;10.30;;
19358;SDS011;9815;52.334;20.890;2023-04-05T08:43:09;17.43;;;8.03;;
19358;SDS011;9815;52.334;20.890;2023-04-05T08:45:48;19.80;;;7.83;;
19358;SDS011;9815;52.334;20.890;2023-04-05T08:48:18;10.80;;;5.67;;
19358;SDS011;9815;52.334;20.890;2023-04-05T08:50:50;11.00;;;5.57;;
19358;SDS011;9815;52.334;20.890;2023-04-05T08:53:18;9.37;;;4.80;;
19358;SDS011;9815;52.334;20.890;2023-04-05T08:55:47;10.40;;;5.53;;
19358;SDS011;9815;52.334;20.890;2023-04-05T08:58:17;12.57;;;5.67;;
19358;SDS011;9815;52.334;20.890;2023-04-05T09:00:48;10.80;;;5.70;;
19358;SDS011;9815;52.334;20.890;2023-04-05T09:03:20;12.07;;;5.90;;
19358;SDS011;9815;52.334;20.890;2023-04-05T09:05:49;10.50;;;4.90;;
19358;SDS011;9815;52.334;20.890;2023-04-05T09:08:18;10.57;;;5.33;;
19358;SDS011;9815;52.334;20.890;2023-04-05T09:10:48;7.27;;;4.33;;
19358;SDS011;9815;52.334;20.890;2023-04-05T09:13:17;12.27;;;4.50;;
19358;SDS011;9815;52.334;20.890;2023-04-05T09:15:45;8.30;;;4.30;;
19358;SDS011;9815;52.334;20.890;2023-04-05T09:18:15;6.57;;;4.27;;
19358;SDS011;9815;52.334;20.890;2023-04-05T09:20:55;11.63;;;4.27;;
19358;SDS011;9815;52.334;20.890;2023-04-05T09:23:28;9.20;;;4.57;;
19358;SDS011;9815;52.334;20.890;2023-04-05T09:25:56;12.93;;;4.43;;
19358;SDS011;9815;52.334;20.890;2023-04-05T09:28:32;9.47;;;3.90;;
19358;SDS011;9815;52.334;20.890;2023-04-05T09:31:08;9.23;;;4.10;;
19358;SDS011;9815;52.334;20.890;2023-04-05T09:33:37;9.47;;;4.23;;
19358;SDS011;9815;52.334;20.890;2023-04-05T09:36:07;10.60;;;4.60;;
19358;SDS011;9815;52.334;20.890;2023-04-05T09:38:43;7.10;;;4.03;;
19358;SDS011;9815;52.334;20.890;2023-04-05T09:41:12;7.03;;;3.90;;
19358;SDS011;9815;52.334;20.890;2023-04-05T09:43:40;8.43;;;3.73;;
19358;SDS011;9815;52.334;20.890;2023-04-05T09:46:16;8.13;;;3.80;;
19358;SDS011;9815;52.334;20.890;2023-04-05T09:48:57;8.00;;;3.90;;
19358;SDS011;9815;52.334;20.890;2023-04-05T09:51:35;6.70;;;3.57;;
19358;SDS011;9815;52.334;20.890;2023-04-05T09:54:08;9.47;;;3.60;;
19358;SDS011;9815;52.334;20.890;2023-04-05T09:56:37;7.03;;;3.33;;
19358;SDS011;9815;52.334;20.890;2023-04-05T09:59:07;6.10;;;3.17;;
19358;SDS011;9815;52.334;20.890;2023-04-05T10:01:37;5.97;;;3.10;;
19358;SDS011;9815;52.334;20.890;2023-04-05T10:04:10;11.27;;;3.43;;
19358;SDS011;9815;52.334;20.890;2023-04-05T10:06:39;6.37;;;3.20;;
19358;SDS011;9815;52.334;20.890;2023-04-05T10:09:08;5.40;;;2.90;;
19358;SDS011;9815;52.334;20.890;2023-04-05T10:11:40;6.10;;;3.20;;
19358;SDS011;9815;52.334;20.890;2023-04-05T10:14:10;6.87;;;2.63;;
19358;SDS011;9815;52.334;20.890;2023-04-05T10:16:41;9.33;;;4.20;;
19358;SDS011;9815;52.334;20.890;2023-04-05T10:19:22;7.30;;;3.37;;
19358;SDS011;9815;52.334;20.890;2023-04-05T10:21:55;12.40;;;3.43;;
19358;SDS011;9815;52.334;20.890;2023-04-05T10:24:29;8.07;;;4.10;;
19358;SDS011;9815;52.334;20.890;2023-04-05T10:27:04;7.23;;;3.50;;
19358;SDS011;9815;52.334;20.890;2023-04-05T10:29:37;7.87;;;3.93;;
19358;SDS011;9815;52.334;20.890;2023-04-05T10:32:10;7.40;;;3.47;;
19358;SDS011;9815;52.334;20.890;2023-04-05T10:34:49;6.50;;;3.27;;
19358;SDS011;9815;52.334;20.890;2023-04-05T10:37:25;4.93;;;3.30;;
19358;SDS011;9815;52.334;20.890;2023-04-05T10:40:00;9.77;;;4.00;;
19358;SDS011;9815;52.334;20.890;2023-04-05T10:42:32;6.97;;;3.60;;
19358;SDS011;9815;52.334;20.890;2023-04-05T10:45:05;6.53;;;4.30;;
19358;SDS011;9815;52.334;20.890;2023-04-05T10:47:37;5.90;;;3.60;;
19358;SDS011;9815;52.334;20.890;2023-04-05T10:50:14;7.50;;;4.23;;
19358;SDS011;9815;52.334;20.890;2023-04-05T10:52:48;7.43;;;4.20;;
19358;SDS011;9815;52.334;20.890;2023-04-05T10:55:17;8.73;;;4.40;;
19358;SDS011;9815;52.334;20.890;2023-04-05T10:57:45;13.80;;;5.13;;
19358;SDS011;9815;52.334;20.890;2023-04-05T11:00:15;8.37;;;4.63;;
19358;SDS011;9815;52.334;20.890;2023-04-05T11:02:44;6.57;;;3.93;;
19358;SDS011;9815;52.334;20.890;2023-04-05T11:05:29;10.07;;;4.80;;
19358;SDS011;9815;52.334;20.890;2023-04-05T11:07:59;6.70;;;3.83;;
19358;SDS011;9815;52.334;20.890;2023-04-05T11:10:33;10.33;;;4.63;;
19358;SDS011;9815;52.334;20.890;2023-04-05T11:13:06;6.40;;;4.37;;
19358;SDS011;9815;52.334;20.890;2023-04-05T11:15:36;8.33;;;5.10;;
19358;SDS011;9815;52.334;20.890;2023-04-05T11:18:06;8.87;;;4.50;;
19358;SDS011;9815;52.334;20.890;2023-04-05T11:20:40;8.07;;;4.63;;
19358;SDS011;9815;52.334;20.890;2023-04-05T11:23:10;8.37;;;4.00;;
19358;SDS011;9815;52.334;20.890;2023-04-05T11:25:40;7.53;;;3.93;;
19358;SDS011;9815;52.334;20.890;2023-04-05T11:28:21;11.67;;;4.27;;
19358;SDS011;9815;52.334;20.890;2023-04-05T11:31:10;7.40;;;4.00;;
19358;SDS011;9815;52.334;20.890;2023-04-05T11:33:53;6.57;;;4.03;;
19358;SDS011;9815;52.334;20.890;2023-04-05T11:36:31;8.07;;;4.37;;
19358;SDS011;9815;52.334;20.890;2023-04-05T11:41:54;8.17;;;3.83;;
19358;SDS011;9815;52.334;20.890;2023-04-05T11:44:24;7.80;;;4.33;;
19358;SDS011;9815;52.334;20.890;2023-04-05T11:46:53;7.77;;;4.00;;
19358;SDS011;9815;52.334;20.890;2023-04-05T11:49:21;12.00;;;4.83;;
19358;SDS011;9815;52.334;20.890;2023-04-05T11:51:51;7.30;;;4.27;;
19358;SDS011;9815;52.334;20.890;2023-04-05T11:54:29;10.67;;;4.27;;
19358;SDS011;9815;52.334;20.890;2023-04-05T11:56:58;7.80;;;3.70;;
19358;SDS011;9815;52.334;20.890;2023-04-05T11:59:31;6.10;;;3.40;;
19358;SDS011;9815;52.334;20.890;2023-04-05T12:02:00;6.73;;;3.67;;
19358;SDS011;9815;52.334;20.890;2023-04-05T12:04:31;7.53;;;3.47;;
19358;SDS011;9815;52.334;20.890;2023-04-05T12:07:11;7.10;;;3.53;;
19358;SDS011;9815;52.334;20.890;2023-04-05T12:12:36;6.10;;;3.20;;
19358;SDS011;9815;52.334;20.890;2023-04-05T12:15:06;7.43;;;3.63;;
19358;SDS011;9815;52.334;20.890;2023-04-05T12:17:39;5.93;;;3.53;;
19358;SDS011;9815;52.334;20.890;2023-04-05T12:20:09;6.00;;;3.57;;
19358;SDS011;9815;52.334;20.890;2023-04-05T12:22:40;10.40;;;4.40;;
19358;SDS011;9815;52.334;20.890;2023-04-05T12:25:09;8.60;;;3.70;;
19358;SDS011;9815;52.334;20.890;2023-04-05T12:27:38;9.37;;;3.80;;
19358;SDS011;9815;52.334;20.890;2023-04-05T12:30:08;7.97;;;3.40;;
19358;SDS011;9815;52.334;20.890;2023-04-05T12:32:41;7.97;;;4.27;;
19358;SDS011;9815;52.334;20.890;2023-04-05T12:35:15;8.77;;;3.70;;
19358;SDS011;9815;52.334;20.890;2023-04-05T12:37:45;6.60;;;3.70;;
19358;SDS011;9815;52.334;20.890;2023-04-05T12:40:18;6.07;;;3.13;;
19358;SDS011;9815;52.334;20.890;2023-04-05T12:42:48;10.47;;;3.77;;
19358;SDS011;9815;52.334;20.890;2023-04-05T12:45:16;6.03;;;3.90;;
19358;SDS011;9815;52.334;20.890;2023-04-05T12:47:48;7.53;;;2.90;;
19358;SDS011;9815;52.334;20.890;2023-04-05T12:50:23;8.27;;;3.50;;
19358;SDS011;9815;52.334;20.890;2023-04-05T12:52:55;10.37;;;3.60;;
19358;SDS011;9815;52.334;20.890;2023-04-05T12:55:24;5.67;;;3.70;;
19358;SDS011;9815;52.334;20.890;2023-04-05T12:57:54;10.90;;;5.47;;
19358;SDS011;9815;52.334;20.890;2023-04-05T13:00:25;26.53;;;14.90;;
19358;SDS011;9815;52.334;20.890;2023-04-05T13:02:54;34.03;;;19.27;;
19358;SDS011;9815;52.334;20.890;2023-04-05T13:05:24;57.17;;;25.63;;
19358;SDS011;9815;52.334;20.890;2023-04-05T13:07:54;33.17;;;16.33;;
19358;SDS011;9815;52.334;20.890;2023-04-05T13:10:23;8.47;;;4.67;;
19358;SDS011;9815;52.334;20.890;2023-04-05T13:12:52;7.33;;;3.87;;
19358;SDS011;9815;52.334;20.890;2023-04-05T13:15:20;14.10;;;8.17;;
19358;SDS011;9815;52.334;20.890;2023-04-05T13:17:48;10.77;;;4.67;;
19358;SDS011;9815;52.334;20.890;2023-04-05T13:20:18;7.57;;;4.57;;
19358;SDS011;9815;52.334;20.890;2023-04-05T13:22:47;7.83;;;3.83;;
19358;SDS011;9815;52.334;20.890;2023-04-05T13:25:16;12.80;;;5.80;;
19358;SDS011;9815;52.334;20.890;2023-04-05T13:27:45;11.47;;;4.47;;
19358;SDS011;9815;52.334;20.890;2023-04-05T13:30:13;32.43;;;11.87;;
19358;SDS011;9815;52.334;20.890;2023-04-05T13:32:41;25.17;;;9.43;;
19358;SDS011;9815;52.334;20.890;2023-04-05T13:35:09;17.33;;;7.47;;
19358;SDS011;9815;52.334;20.890;2023-04-05T13:37:37;7.13;;;4.60;;
19358;SDS011;9815;52.334;20.890;2023-04-05T13:40:06;22.63;;;8.53;;
19358;SDS011;9815;52.334;20.890;2023-04-05T13:42:36;12.87;;;4.70;;
19358;SDS011;9815;52.334;20.890;2023-04-05T13:45:05;6.23;;;3.10;;
19358;SDS011;9815;52.334;20.890;2023-04-05T13:47:33;8.90;;;3.13;;
19358;SDS011;9815;52.334;20.890;2023-04-05T13:50:01;7.20;;;3.53;;
19358;SDS011;9815;52.334;20.890;2023-04-05T13:52:30;13.00;;;5.73;;
19358;SDS011;9815;52.334;20.890;2023-04-05T13:54:58;18.37;;;8.53;;
19358;SDS011;9815;52.334;20.890;2023-04-05T13:57:29;11.90;;;5.10;;
19358;SDS011;9815;52.334;20.890;2023-04-05T13:59:58;12.53;;;5.20;;
19358;SDS011;9815;52.334;20.890;2023-04-05T14:02:37;17.03;;;8.17;;
19358;SDS011;9815;52.334;20.890;2023-04-05T14:05:06;10.00;;;5.10;;
19358;SDS011;9815;52.334;20.890;2023-04-05T14:07:34;8.40;;;4.27;;
19358;SDS011;9815;52.334;20.890;2023-04-05T14:10:03;8.70;;;4.13;;
19358;SDS011;9815;52.334;20.890;2023-04-05T14:12:32;7.07;;;3.90;;
19358;SDS011;9815;52.334;20.890;2023-04-05T14:15:02;10.93;;;4.03;;
19358;SDS011;9815;52.334;20.890;2023-04-05T14:17:30;7.27;;;3.40;;
19358;SDS011;9815;52.334;20.890;2023-04-05T14:19:58;5.63;;;3.40;;
19358;SDS011;9815;52.334;20.890;2023-04-05T14:22:26;8.77;;;4.63;;
19358;SDS011;9815;52.334;20.890;2023-04-05T14:24:54;46.10;;;14.87;;
19358;SDS011;9815;52.334;20.890;2023-04-05T14:27:22;40.20;;;12.73;;
19358;SDS011;9815;52.334;20.890;2023-04-05T14:29:52;12.83;;;5.63;;
19358;SDS011;9815;52.334;20.890;2023-04-05T14:32:23;9.73;;;4.10;;
19358;SDS011;9815;52.334;20.890;2023-04-05T14:34:52;6.93;;;3.70;;
19358;SDS011;9815;52.334;20.890;2023-04-05T14:37:20;5.80;;;3.20;;
19358;SDS011;9815;52.334;20.890;2023-04-05T14:39:48;10.83;;;3.70;;
19358;SDS011;9815;52.334;20.890;2023-04-05T14:42:16;6.87;;;4.00;;
19358;SDS011;9815;52.334;20.890;2023-04-05T14:44:44;11.27;;;5.53;;
19358;SDS011;9815;52.334;20.890;2023-04-05T14:47:12;8.47;;;4.50;;
19358;SDS011;9815;52.334;20.890;2023-04-05T14:49:41;8.77;;;4.40;;
19358;SDS011;9815;52.334;20.890;2023-04-05T14:52:09;12.23;;;4.97;;
19358;SDS011;9815;52.334;20.890;2023-04-05T14:54:37;14.83;;;5.57;;
19358;SDS011;9815;52.334;20.890;2023-04-05T14:57:05;11.57;;;5.40;;
19358;SDS011;9815;52.334;20.890;2023-04-05T14:59:33;7.93;;;4.23;;